createdAt,value
2018-08-22T00:00:54.646Z,95758.6
2018-08-22T00:01:57.097Z,95754
2018-08-22T00:02:59.269Z,95755.2
2018-08-22T00:04:01.456Z,95753.7
2018-08-22T00:05:03.594Z,95755.6
2018-08-22T00:06:05.769Z,95754.3
2018-08-22T00:07:08.223Z,95755.8
2018-08-22T00:08:10.409Z,95751.7
2018-08-22T00:09:12.864Z,95753.5
2018-08-22T00:10:15.033Z,95753.1
2018-08-22T00:11:17.218Z,95756.2
2018-08-22T00:12:19.401Z,95757.9
2018-08-22T00:13:21.846Z,95754.5
2018-08-22T00:14:24.295Z,95752.6
2018-08-22T00:15:26.462Z,95752.8
2018-08-22T00:16:28.648Z,95758
2018-08-22T00:17:30.545Z,95754.6
2018-08-22T00:18:32.719Z,95750.8
2018-08-22T00:19:35.167Z,95748.8
2018-08-22T00:20:37.604Z,95753.9
2018-08-22T00:21:39.804Z,95751.7
2018-08-22T00:22:42.243Z,95749.2
2018-08-22T00:23:44.170Z,95751.3
2018-08-22T00:24:46.608Z,95751
2018-08-22T00:25:49.053Z,95746
2018-08-22T00:26:51.010Z,95747.6
2018-08-22T00:27:53.487Z,95748
2018-08-22T00:28:55.673Z,95745.2
2018-08-22T00:29:58.134Z,95743.9
2018-08-22T00:31:00.575Z,95745.1
2018-08-22T00:32:02.740Z,95746.2
2018-08-22T00:33:04.913Z,95746.9
2018-08-22T00:34:07.365Z,95745.9
2018-08-22T00:35:09.536Z,95745.8
2018-08-22T00:36:11.981Z,95748.6
2018-08-22T00:37:14.124Z,95745.3
2018-08-22T00:38:16.561Z,95748.3
2018-08-22T00:39:19.019Z,95746
2018-08-22T00:40:21.227Z,95749.7
2018-08-22T00:41:23.679Z,95746.5
2018-08-22T00:42:26.125Z,95746.5
2018-08-22T00:43:28.291Z,95751
2018-08-22T00:44:30.435Z,95747.4
2018-08-22T00:45:32.594Z,95747.3
2018-08-22T00:46:35.040Z,95749.3
2018-08-22T00:47:37.506Z,95752.3
2018-08-22T00:48:39.672Z,95750.9
2018-08-22T00:49:42.116Z,95756.9
2018-08-22T00:50:44.558Z,95751.4
2018-08-22T00:51:46.742Z,95752.4
2018-08-22T00:52:48.643Z,95755.1
2018-08-22T00:53:50.816Z,95749.4
2018-08-22T00:54:52.709Z,95750.5
2018-08-22T00:55:55.145Z,95755
2018-08-22T00:56:57.581Z,95751.8
2018-08-22T00:57:59.757Z,95750.7
2018-08-22T00:59:01.948Z,95745.2
2018-08-22T01:00:04.124Z,95744.2
2018-08-22T01:01:06.567Z,95742.8
2018-08-22T01:02:09.009Z,95738.4
2018-08-22T01:03:10.888Z,95737.2
2018-08-22T01:04:13.348Z,95736.6
2018-08-22T01:05:15.787Z,95732.5
2018-08-22T01:06:17.988Z,95732.5
2018-08-22T01:07:19.910Z,95738
2018-08-22T01:08:21.800Z,95736.6
2018-08-22T01:09:23.984Z,95733.5
2018-08-22T01:10:26.424Z,95729.4
2018-08-22T01:11:28.869Z,95731.8
2018-08-22T01:12:31.311Z,95728
2018-08-22T01:13:33.755Z,95726
2018-08-22T01:14:35.940Z,95724.9
2018-08-22T01:15:38.389Z,95728.2
2018-08-22T01:16:40.824Z,95725.5
2018-08-22T01:17:43.031Z,95727.1
2018-08-22T01:18:45.534Z,95726.4
2018-08-22T01:19:47.732Z,95724.6
2018-08-22T01:20:50.174Z,95721.6
2018-08-22T01:21:52.621Z,95725.1
2018-08-22T01:22:54.775Z,95725.4
2018-08-22T01:23:56.660Z,95725.9
2018-08-22T01:24:59.095Z,95724.6
2018-08-22T01:26:01.545Z,95719
2018-08-22T01:27:03.724Z,95723
2018-08-22T01:28:05.919Z,95720.9
2018-08-22T01:29:08.368Z,95719.5
2018-08-22T01:30:10.818Z,95718.5
2018-08-22T01:31:12.691Z,95719.5
2018-08-22T01:32:15.142Z,95717.4
2018-08-22T01:33:17.587Z,95716.9
2018-08-22T01:34:20.035Z,95716.2
2018-08-22T01:35:22.204Z,95716.3
2018-08-22T01:36:24.378Z,95713.9
2018-08-22T01:37:26.543Z,95714.7
2018-08-22T01:38:28.456Z,95714.4
2018-08-22T01:39:30.925Z,95716.9
2018-08-22T01:40:33.368Z,95714.3
2018-08-22T01:41:35.806Z,95716.7
2018-08-22T01:42:37.987Z,95713
2018-08-22T01:43:40.424Z,95714.4
2018-08-22T01:44:42.596Z,95713.6
2018-08-22T01:45:44.511Z,95716.3
2018-08-22T01:46:46.679Z,95721.5
2018-08-22T01:47:48.857Z,95719.4
2018-08-22T01:48:51.284Z,95718.2
2018-08-22T01:49:53.180Z,95717.3
2018-08-22T01:50:55.654Z,95714.5
2018-08-22T01:51:57.586Z,95714.4
2018-08-22T01:52:59.756Z,95712.1
2018-08-22T01:54:02.211Z,95711.9
2018-08-22T01:55:04.362Z,95709.7
2018-08-22T01:56:06.251Z,95706.3
2018-08-22T01:57:08.449Z,95710.5
2018-08-22T01:58:10.606Z,95707.2
2018-08-22T01:59:13.059Z,95705.2
2018-08-22T02:00:15.515Z,95710.3
2018-08-22T02:01:17.972Z,95709
2018-08-22T02:02:20.405Z,95709.6
2018-08-22T02:03:22.580Z,95706.9
2018-08-22T02:04:24.752Z,95708.5
2018-08-22T02:05:27.205Z,95700.5
2018-08-22T02:06:29.385Z,95704.5
2018-08-22T02:07:31.586Z,95708.1
2018-08-22T02:08:34.029Z,95708
2018-08-22T02:09:36.197Z,95708.7
2018-08-22T02:10:38.655Z,95709.2
2018-08-22T02:11:40.559Z,95714.6
2018-08-22T02:12:42.723Z,95712
2018-08-22T02:13:45.166Z,95711.4
2018-08-22T02:14:47.355Z,95714.3
2018-08-22T02:15:49.536Z,95709.6
2018-08-22T02:16:51.992Z,95706.5
2018-08-22T02:17:54.158Z,95705.5
2018-08-22T02:18:56.596Z,95706.7
2018-08-22T02:19:59.054Z,95704.5
2018-08-22T02:21:01.240Z,95704.3
2018-08-22T02:22:03.142Z,95707
2018-08-22T02:23:05.319Z,95706.3
2018-08-22T02:24:07.509Z,95703.1
2018-08-22T02:25:09.886Z,95701.5
2018-08-22T02:26:12.445Z,95704.3
2018-08-22T02:27:14.614Z,95702.3
2018-08-22T02:28:16.509Z,95703.4
2018-08-22T02:29:18.951Z,95702.4
2018-08-22T02:30:21.136Z,95702.4
2018-08-22T02:31:23.578Z,95701.2
2018-08-22T02:32:25.754Z,95703.5
2018-08-22T02:33:27.934Z,95702
2018-08-22T02:34:29.826Z,95703.3
2018-08-22T02:35:31.995Z,95702.3
2018-08-22T02:36:34.454Z,95698.9
2018-08-22T02:37:36.608Z,95701.9
2018-08-22T02:38:38.763Z,95700.6
2018-08-22T02:39:41.193Z,95698.1
2018-08-22T02:40:43.645Z,95704.5
2018-08-22T02:41:45.552Z,95702.7
2018-08-22T02:42:47.461Z,95696.8
2018-08-22T02:43:49.365Z,95700.1
2018-08-22T02:44:51.818Z,95698.9
2018-08-22T02:45:54.260Z,95697.5
2018-08-22T02:46:56.701Z,95697.2
2018-08-22T02:47:58.582Z,95697.4
2018-08-22T02:49:00.794Z,95699.6
2018-08-22T02:50:03.240Z,95701.4
2018-08-22T02:51:05.427Z,95701.5
2018-08-22T02:52:07.872Z,95700.9
2018-08-22T02:53:10.044Z,95703.7
2018-08-22T02:54:12.200Z,95698.9
2018-08-22T02:55:14.645Z,95699.3
2018-08-22T02:56:17.151Z,95702.1
2018-08-22T02:57:18.776Z,95703.2
2018-08-22T02:58:21.229Z,95698.7
2018-08-22T02:59:23.142Z,95697.9
2018-08-22T03:00:25.596Z,95700.4
2018-08-22T03:01:27.763Z,95701.2
2018-08-22T03:02:30.218Z,95696.6
2018-08-22T03:03:32.666Z,95701.7
2018-08-22T03:04:34.836Z,95697.1
2018-08-22T03:05:37.293Z,95694.5
2018-08-22T03:06:39.467Z,95692.8
2018-08-22T03:07:41.652Z,95692.1
2018-08-22T03:08:44.106Z,95692.6
2018-08-22T03:09:46.000Z,95692.6
2018-08-22T03:10:48.456Z,95693.7
2018-08-22T03:11:50.646Z,95687.6
2018-08-22T03:12:53.084Z,95692.4
2018-08-22T03:13:55.537Z,95691
2018-08-22T03:14:57.987Z,95689
2018-08-22T03:15:59.876Z,95687.4
2018-08-22T03:17:01.750Z,95689.7
2018-08-22T03:18:04.194Z,95688.2
2018-08-22T03:19:06.089Z,95694.2
2018-08-22T03:20:08.560Z,95695.3
2018-08-22T03:21:10.465Z,95690.3
2018-08-22T03:22:12.925Z,95690.9
2018-08-22T03:23:15.367Z,95690.2
2018-08-22T03:24:17.549Z,95691.4
2018-08-22T03:25:19.708Z,95690.7
2018-08-22T03:26:22.167Z,95688.6
2018-08-22T03:27:24.339Z,95692.4
2018-08-22T03:28:26.524Z,95692
2018-08-22T03:29:28.668Z,95696.3
2018-08-22T03:30:31.117Z,95694
2018-08-22T03:31:33.285Z,95693.3
2018-08-22T03:32:35.430Z,95690.7
2018-08-22T03:33:37.899Z,95692.1
2018-08-22T03:34:40.346Z,95693.3
2018-08-22T03:35:42.806Z,95691.5
2018-08-22T03:36:45.246Z,95692.1
2018-08-22T03:37:47.150Z,95694.8
2018-08-22T03:38:49.325Z,95693.5
2018-08-22T03:39:51.502Z,95692.5
2018-08-22T03:40:53.947Z,95689.7
2018-08-22T03:41:56.396Z,95689.7
2018-08-22T03:42:58.580Z,95686.6
2018-08-22T03:44:00.753Z,95687.9
2018-08-22T03:45:03.204Z,95692.8
2018-08-22T03:46:05.374Z,95687.5
2018-08-22T03:47:07.814Z,95686.9
2018-08-22T03:48:09.989Z,95689
2018-08-22T03:49:12.440Z,95686.9
2018-08-22T03:50:14.621Z,95687.9
2018-08-22T03:51:17.075Z,95692.4
2018-08-22T03:52:19.298Z,95689.3
2018-08-22T03:53:21.467Z,95690.4
2018-08-22T03:54:24.278Z,95687.7
2018-08-22T03:55:26.318Z,95691.7
2018-08-22T03:56:28.560Z,95690
2018-08-22T03:57:30.760Z,95690.2
2018-08-22T03:58:32.941Z,95690.5
2018-08-22T03:59:34.573Z,95694.1
2018-08-22T04:00:36.788Z,95696.6
2018-08-22T04:01:39.242Z,95691.7
2018-08-22T04:02:41.686Z,95689.2
2018-08-22T04:03:43.873Z,95691.5
2018-08-22T04:04:46.055Z,95692.9
2018-08-22T04:05:47.681Z,95694
2018-08-22T04:06:50.145Z,95693
2018-08-22T04:07:52.609Z,95696.1
2018-08-22T04:08:55.072Z,95694
2018-08-22T04:09:57.283Z,95694.6
2018-08-22T04:10:58.913Z,95695.3
2018-08-22T04:12:01.149Z,95699.1
2018-08-22T04:13:03.342Z,95697.8
2018-08-22T04:14:05.506Z,95696.4
2018-08-22T04:15:07.405Z,95697.6
2018-08-22T04:16:09.291Z,95693.7
2018-08-22T04:17:11.197Z,95693.3
2018-08-22T04:18:13.646Z,95695.7
2018-08-22T04:19:15.820Z,95699.8
2018-08-22T04:20:18.002Z,95697.2
2018-08-22T04:21:20.156Z,95700
2018-08-22T04:22:22.307Z,95695.7
2018-08-22T04:23:24.770Z,95697.4
2018-08-22T04:24:27.208Z,95698.1
2018-08-22T04:25:29.389Z,95699.3
2018-08-22T04:26:31.839Z,95698.4
2018-08-22T04:27:34.289Z,95697.7
2018-08-22T04:28:36.730Z,95699.7
2018-08-22T04:29:38.952Z,95699.4
2018-08-22T04:30:41.401Z,95699.2
2018-08-22T04:31:43.575Z,95695.7
2018-08-22T04:32:45.479Z,95699.8
2018-08-22T04:33:47.929Z,95699.9
2018-08-22T04:34:49.830Z,95701.6
2018-08-22T04:35:52.017Z,95701.2
2018-08-22T04:36:54.186Z,95699.5
2018-08-22T04:37:56.642Z,95698.3
2018-08-22T04:38:58.844Z,95701.7
2018-08-22T04:40:01.031Z,95696.7
2018-08-22T04:41:03.487Z,95698.7
2018-08-22T04:42:05.415Z,95702.1
2018-08-22T04:43:06.778Z,95700.3
2018-08-22T04:44:08.926Z,95701.3
2018-08-22T04:45:11.393Z,95700.7
2018-08-22T04:46:13.845Z,95702.1
2018-08-22T04:47:16.302Z,95703.2
2018-08-22T04:48:18.066Z,95706.6
2018-08-22T04:49:20.399Z,95705.4
2018-08-22T04:50:22.290Z,95707.6
2018-08-22T04:51:24.735Z,95710.8
2018-08-22T04:52:26.927Z,95707.8
2018-08-22T04:53:29.366Z,95716.8
2018-08-22T04:54:31.242Z,95712.6
2018-08-22T04:55:33.423Z,95715.1
2018-08-22T04:56:35.329Z,95716.7
2018-08-22T04:57:37.519Z,95716
2018-08-22T04:58:39.676Z,95716.8
2018-08-22T04:59:41.841Z,95715.3
2018-08-22T05:00:44.025Z,95722.4
2018-08-22T05:01:46.204Z,95722.9
2018-08-22T05:02:48.655Z,95720.9
2018-08-22T05:03:50.842Z,95721.4
2018-08-22T05:04:53.045Z,95722.8
2018-08-22T05:05:55.663Z,95723.4
2018-08-22T05:06:57.905Z,95725.6
2018-08-22T05:08:00.107Z,95727.9
2018-08-22T05:09:02.015Z,95728.1
2018-08-22T05:10:04.460Z,95726.1
2018-08-22T05:11:06.927Z,95728.4
2018-08-22T05:12:09.388Z,95726.6
2018-08-22T05:13:11.570Z,95730.2
2018-08-22T05:14:14.025Z,95732.2
2018-08-22T05:15:16.215Z,95738
2018-08-22T05:16:18.401Z,95735.3
2018-08-22T05:17:20.579Z,95736.6
2018-08-22T05:18:23.042Z,95735.8
2018-08-22T05:19:25.239Z,95735.4
2018-08-22T05:20:27.701Z,95735.8
2018-08-22T05:21:30.152Z,95732.8
2018-08-22T05:22:32.307Z,95734.8
2018-08-22T05:23:34.524Z,95736.9
2018-08-22T05:24:36.723Z,95737.6
2018-08-22T05:25:38.342Z,95736.7
2018-08-22T05:26:40.234Z,95730.1
2018-08-22T05:27:42.133Z,95733
2018-08-22T05:28:44.054Z,95735.3
2018-08-22T05:29:45.962Z,95739.1
2018-08-22T05:30:48.403Z,95738.4
2018-08-22T05:31:50.310Z,95738.3
2018-08-22T05:32:52.475Z,95736.2
2018-08-22T05:33:54.911Z,95737.8
2018-08-22T05:34:57.373Z,95735.5
2018-08-22T05:35:59.518Z,95737.7
2018-08-22T05:37:01.441Z,95738.3
2018-08-22T05:38:03.635Z,95741
2018-08-22T05:39:06.089Z,95740.1
2018-08-22T05:40:07.725Z,95742
2018-08-22T05:41:09.653Z,95745.8
2018-08-22T05:42:11.836Z,95740.6
2018-08-22T05:43:13.746Z,95742.6
2018-08-22T05:44:16.192Z,95742.2
2018-08-22T05:45:18.651Z,95744.2
2018-08-22T05:46:20.536Z,95744.5
2018-08-22T05:47:22.441Z,95744.2
2018-08-22T05:48:24.906Z,95744.6
2018-08-22T05:49:26.825Z,95748.9
2018-08-22T05:50:29.285Z,95746.9
2018-08-22T05:51:31.739Z,95746.4
2018-08-22T05:52:34.200Z,95746.1
2018-08-22T05:53:36.633Z,95748
2018-08-22T05:54:38.825Z,95747.6
2018-08-22T05:55:40.994Z,95751.3
2018-08-22T05:56:43.176Z,95753.7
2018-08-22T05:57:45.718Z,95751.8
2018-08-22T05:58:48.188Z,95749.1
2018-08-22T05:59:50.374Z,95750.3
2018-08-22T06:00:52.868Z,95753.1
2018-08-22T06:01:55.040Z,95750.6
2018-08-22T06:02:57.520Z,95752.9
2018-08-22T06:03:59.407Z,95752.4
2018-08-22T06:05:01.576Z,95754.6
2018-08-22T06:06:03.757Z,95750.5
2018-08-22T06:07:06.206Z,95755.3
2018-08-22T06:08:08.392Z,95753.1
2018-08-22T06:09:11.078Z,95752.1
2018-08-22T06:10:13.454Z,95757.4
2018-08-22T06:11:15.908Z,95756.3
2018-08-22T06:12:18.092Z,95757.7
2018-08-22T06:13:20.536Z,95752.9
2018-08-22T06:14:22.699Z,95754.6
2018-08-22T06:15:25.174Z,95751.9
2018-08-22T06:16:27.620Z,95749.1
2018-08-22T06:17:30.072Z,95745
2018-08-22T06:18:31.963Z,95744.8
2018-08-22T06:19:34.131Z,95747.1
2018-08-22T06:20:36.577Z,95746.9
2018-08-22T06:21:38.763Z,95744.5
2018-08-22T06:22:41.215Z,95743
2018-08-22T06:23:43.677Z,95741.4
2018-08-22T06:24:45.861Z,95746.2
2018-08-22T06:25:48.306Z,95744.7
2018-08-22T06:26:50.773Z,95741.4
2018-08-22T06:27:53.218Z,95742.7
2018-08-22T06:28:55.393Z,95738.6
2018-08-22T06:29:57.839Z,95742.4
2018-08-22T06:31:00.293Z,95745.7
2018-08-22T06:32:02.757Z,95743.6
2018-08-22T06:33:05.590Z,95741.8
2018-08-22T06:34:08.197Z,95742.8
2018-08-22T06:35:10.388Z,95737.3
2018-08-22T06:36:12.978Z,95741.8
2018-08-22T06:37:15.513Z,95746.2
2018-08-22T06:38:17.966Z,95740.8
2018-08-22T06:39:20.431Z,95741.5
2018-08-22T06:40:22.046Z,95738
2018-08-22T06:41:24.223Z,95744.2
2018-08-22T06:42:26.096Z,95742.1
2018-08-22T06:43:28.564Z,95739.9
2018-08-22T06:44:31.005Z,95743.4
2018-08-22T06:45:33.477Z,95742.6
2018-08-22T06:46:35.924Z,95741.4
2018-08-22T06:47:38.381Z,95742.9
2018-08-22T06:48:40.296Z,95742.4
2018-08-22T06:49:42.208Z,95739.4
2018-08-22T06:50:43.857Z,95744.4
2018-08-22T06:51:46.328Z,95744
2018-08-22T06:52:48.513Z,95743.4
2018-08-22T06:53:50.969Z,95743.8
2018-08-22T06:54:53.438Z,95740.3
2018-08-22T06:55:55.885Z,95741.9
2018-08-22T06:56:58.121Z,95740.6
2018-08-22T06:58:00.593Z,95743.4
2018-08-22T06:59:02.773Z,95741.7
2018-08-22T07:00:04.938Z,95744.7
2018-08-22T07:01:07.397Z,95739.6
2018-08-22T07:02:09.847Z,95741.1
2018-08-22T07:03:12.297Z,95737.6
2018-08-22T07:04:14.448Z,95742
2018-08-22T07:05:16.092Z,95740.7
2018-08-22T07:06:18.261Z,95737.2
2018-08-22T07:07:20.470Z,95740.9
2018-08-22T07:08:22.369Z,95738.7
2018-08-22T07:09:24.296Z,95741.8
2018-08-22T07:10:26.752Z,95744.4
2018-08-22T07:11:28.666Z,95743
2018-08-22T07:12:31.140Z,95741.1
2018-08-22T07:13:33.327Z,95742
2018-08-22T07:14:35.535Z,95744.7
2018-08-22T07:15:37.977Z,95741.4
2018-08-22T07:16:39.887Z,95743
2018-08-22T07:17:42.030Z,95739.3
2018-08-22T07:18:43.919Z,95739.6
2018-08-22T07:19:46.090Z,95741.6
2018-08-22T07:20:48.632Z,95737.9
2018-08-22T07:21:51.134Z,95742.2
2018-08-22T07:22:53.592Z,95737.8
2018-08-22T07:23:55.505Z,95738.1
2018-08-22T07:24:57.397Z,95742.5
2018-08-22T07:25:59.305Z,95743.6
2018-08-22T07:27:01.747Z,95741.5
2018-08-22T07:28:04.192Z,95741.5
2018-08-22T07:29:06.646Z,95741
2018-08-22T07:30:09.050Z,95739.5
2018-08-22T07:31:11.000Z,95743.7
2018-08-22T07:32:13.161Z,95741.5
2018-08-22T07:33:15.067Z,95738.4
2018-08-22T07:34:17.259Z,95740.5
2018-08-22T07:35:19.727Z,95743.5
2018-08-22T07:36:21.643Z,95740.8
2018-08-22T07:37:23.282Z,95738.9
2018-08-22T07:38:25.458Z,95737.9
2018-08-22T07:39:27.912Z,95740.8
2018-08-22T07:40:30.368Z,95738.6
2018-08-22T07:41:32.830Z,95740.3
2018-08-22T07:42:35.287Z,95740.3
2018-08-22T07:43:37.724Z,95743.3
2018-08-22T07:44:40.190Z,95737.3
2018-08-22T07:45:42.348Z,95742.6
2018-08-22T07:46:44.519Z,95739.5
2018-08-22T07:47:46.462Z,95738.9
2018-08-22T07:48:48.907Z,95744.4
2018-08-22T07:49:51.096Z,95744.3
2018-08-22T07:50:53.544Z,95743.7
2018-08-22T07:51:55.433Z,95742.8
2018-08-22T07:52:57.338Z,95744
2018-08-22T07:53:59.478Z,95747.1
2018-08-22T07:55:01.407Z,95746.2
2018-08-22T07:56:03.569Z,95740.8
2018-08-22T07:57:05.798Z,95745.1
2018-08-22T07:58:07.982Z,95742
2018-08-22T07:59:10.158Z,95744.3
2018-08-22T08:00:13.100Z,95741.1
2018-08-22T08:01:15.759Z,95741.3
2018-08-22T08:02:18.219Z,95743.1
2018-08-22T08:03:20.464Z,95747
2018-08-22T08:04:22.928Z,95745.4
2018-08-22T08:05:25.509Z,95743.2
2018-08-22T08:06:27.839Z,95742
2018-08-22T08:07:30.300Z,95745.2
2018-08-22T08:08:32.916Z,95746.7
2018-08-22T08:09:34.877Z,95746.5
2018-08-22T08:10:37.331Z,95746.3
2018-08-22T08:11:39.246Z,95746.1
2018-08-22T08:12:41.107Z,95741.7
2018-08-22T08:13:43.700Z,95741.8
2018-08-22T08:14:46.141Z,95742.1
2018-08-22T08:15:48.645Z,95744.4
2018-08-22T08:16:50.819Z,95745.3
2018-08-22T08:17:53.289Z,95746
2018-08-22T08:18:55.795Z,95743.6
2018-08-22T08:19:57.469Z,95743.5
2018-08-22T08:20:59.946Z,95745.1
2018-08-22T08:22:02.142Z,95746.3
2018-08-22T08:23:04.312Z,95747.8
2018-08-22T08:24:06.755Z,95747.6
2018-08-22T08:25:08.936Z,95749.6
2018-08-22T08:26:11.745Z,95745.6
2018-08-22T08:27:14.321Z,95745.8
2018-08-22T08:28:16.756Z,95745.8
2018-08-22T08:29:19.217Z,95745
2018-08-22T08:30:21.398Z,95742.7
2018-08-22T08:31:23.627Z,95739.4
2018-08-22T08:32:26.090Z,95738.7
2018-08-22T08:33:28.536Z,95734.6
2018-08-22T08:34:30.725Z,95734.4
2018-08-22T08:35:32.928Z,95733.1
2018-08-22T08:36:35.116Z,95730.1
2018-08-22T08:37:37.277Z,95732.7
2018-08-22T08:38:39.507Z,95729.6
2018-08-22T08:39:41.980Z,95732.6
2018-08-22T08:40:44.192Z,95733.6
2018-08-22T08:41:47.392Z,95732.6
2018-08-22T08:42:50.093Z,95730.4
2018-08-22T08:43:52.268Z,95729.5
2018-08-22T08:44:54.741Z,95727.5
2018-08-22T08:45:56.953Z,95723.8
2018-08-22T08:46:59.189Z,95722.7
2018-08-22T08:48:01.114Z,95721.2
2018-08-22T08:49:03.305Z,95723.5
2018-08-22T08:50:05.798Z,95725
2018-08-22T08:51:08.292Z,95721.1
2018-08-22T08:52:10.531Z,95722.1
2018-08-22T08:53:12.135Z,95718.1
2018-08-22T08:54:14.583Z,95719.5
2018-08-22T08:55:16.485Z,95713.5
2018-08-22T08:56:18.683Z,95720.3
2018-08-22T08:57:21.021Z,95723.9
2018-08-22T08:58:23.354Z,95722.9
2018-08-22T08:59:25.868Z,95722.5
2018-08-22T09:00:28.121Z,95719.6
2018-08-22T09:01:30.080Z,95722.9
2018-08-22T09:02:31.984Z,95719.4
2018-08-22T09:03:34.461Z,95721.5
2018-08-22T09:04:36.904Z,95716.6
2018-08-22T09:05:39.115Z,95714.3
2018-08-22T09:06:41.658Z,95715.6
2018-08-22T09:07:44.105Z,95714.9
2018-08-22T09:08:45.742Z,95711.8
2018-08-22T09:09:48.195Z,95710.4
2018-08-22T09:10:51.162Z,95713.7
2018-08-22T09:11:53.669Z,95710.2
2018-08-22T09:12:56.125Z,95710.3
2018-08-22T09:13:58.317Z,95712.3
2018-08-22T09:15:00.764Z,95710.9
2018-08-22T09:16:02.364Z,95706.5
2018-08-22T09:17:04.822Z,95707.5
2018-08-22T09:18:07.286Z,95708.1
2018-08-22T09:19:09.737Z,95707.7
2018-08-22T09:20:12.210Z,95706.4
2018-08-22T09:21:14.334Z,95709.8
2018-08-22T09:22:16.527Z,95710.9
2018-08-22T09:23:18.781Z,95707.3
2018-08-22T09:24:21.369Z,95705.8
2018-08-22T09:25:23.549Z,95709.4
2018-08-22T09:26:25.481Z,95704.3
2018-08-22T09:27:27.640Z,95703.5
2018-08-22T09:28:29.542Z,95703.5
2018-08-22T09:29:32.150Z,95706.1
2018-08-22T09:30:34.678Z,95703
2018-08-22T09:31:36.864Z,95707.3
2018-08-22T09:32:38.784Z,95703.7
2018-08-22T09:33:41.396Z,95710.8
2018-08-22T09:34:43.015Z,95705.9
2018-08-22T09:35:45.503Z,95709.5
2018-08-22T09:36:47.963Z,95709
2018-08-22T09:37:49.888Z,95703.6
2018-08-22T09:38:52.065Z,95711.8
2018-08-22T09:39:54.691Z,95707.3
2018-08-22T09:40:57.174Z,95706.6
2018-08-22T09:41:59.323Z,95704.9
2018-08-22T09:43:01.765Z,95703
2018-08-22T09:44:04.243Z,95708.6
2018-08-22T09:45:06.719Z,95705.5
2018-08-22T09:46:08.916Z,95706
2018-08-22T09:47:10.624Z,95702.2
2018-08-22T09:48:12.854Z,95704.4
2018-08-22T09:49:14.997Z,95706.4
2018-08-22T09:50:17.281Z,95706.4
2018-08-22T09:51:19.795Z,95699.6
2018-08-22T09:52:21.955Z,95698.5
2018-08-22T09:53:24.419Z,95700.3
2018-08-22T09:54:26.293Z,95698.2
2018-08-22T09:55:28.490Z,95699.1
2018-08-22T09:56:30.932Z,95697.7
2018-08-22T09:57:33.394Z,95697.7
2018-08-22T09:58:36.096Z,95695.1
2018-08-22T09:59:38.561Z,95696.9
2018-08-22T10:00:41.298Z,95695.4
2018-08-22T10:01:43.840Z,95692.7
2018-08-22T10:02:46.305Z,95694.8
2018-08-22T10:03:48.473Z,95693.6
2018-08-22T10:04:50.649Z,95694.6
2018-08-22T10:05:52.561Z,95694.4
2018-08-22T10:06:55.266Z,95695.7
2018-08-22T10:07:57.957Z,95694.2
2018-08-22T10:09:00.166Z,95695.6
2018-08-22T10:10:02.668Z,95690.6
2018-08-22T10:11:05.369Z,95693.5
2018-08-22T10:12:07.584Z,95691.7
2018-08-22T10:13:10.029Z,95688.2
2018-08-22T10:14:12.226Z,95686.5
2018-08-22T10:15:14.697Z,95691
2018-08-22T10:16:16.904Z,95686.2
2018-08-22T10:17:19.335Z,95682.7
2018-08-22T10:18:21.847Z,95685.6
2018-08-22T10:19:24.301Z,95682.4
2018-08-22T10:20:26.748Z,95679.6
2018-08-22T10:21:28.936Z,95680.9
2018-08-22T10:22:31.119Z,95683.5
2018-08-22T10:23:33.280Z,95682.4
2018-08-22T10:24:35.746Z,95680
2018-08-22T10:25:37.956Z,95678.6
2018-08-22T10:26:40.895Z,95675.8
2018-08-22T10:27:43.465Z,95680.5
2018-08-22T10:28:45.366Z,95679.8
2018-08-22T10:29:47.552Z,95675.5
2018-08-22T10:30:50.211Z,95675.6
2018-08-22T10:31:52.381Z,95673
2018-08-22T10:32:55.692Z,95672.3
2018-08-22T10:33:58.277Z,95674.4
2018-08-22T10:35:00.723Z,95672.4
2018-08-22T10:36:02.996Z,95669.8
2018-08-22T10:37:04.937Z,95669.5
2018-08-22T10:38:07.391Z,95668.4
2018-08-22T10:39:09.550Z,95669.3
2018-08-22T10:40:12.023Z,95659.3
2018-08-22T10:41:14.222Z,95659.5
2018-08-22T10:42:16.661Z,95664.3
2018-08-22T10:43:18.827Z,95660.9
2018-08-22T10:44:21.037Z,95659.1
2018-08-22T10:45:23.176Z,95661.6
2018-08-22T10:46:25.368Z,95660.9
2018-08-22T10:47:27.298Z,95662.7
2018-08-22T10:48:29.820Z,95658.4
2018-08-22T10:49:32.034Z,95661.4
2018-08-22T10:50:34.461Z,95657.9
2018-08-22T10:51:36.960Z,95657.6
2018-08-22T10:52:39.416Z,95654.8
2018-08-22T10:53:41.884Z,95656.6
2018-08-22T10:54:44.061Z,95654
2018-08-22T10:55:45.689Z,95654.5
2018-08-22T10:56:47.867Z,95652.3
2018-08-22T10:57:50.050Z,95651.1
2018-08-22T10:58:52.514Z,95646.8
2018-08-22T10:59:55.018Z,95654.2
2018-08-22T11:00:57.480Z,95654
2018-08-22T11:01:59.627Z,95650.7
2018-08-22T11:03:01.845Z,95648.5
2018-08-22T11:04:03.456Z,95648
2018-08-22T11:05:05.910Z,95647.8
2018-08-22T11:06:07.798Z,95649.1
2018-08-22T11:07:10.257Z,95650
2018-08-22T11:08:11.906Z,95649.8
2018-08-22T11:09:14.345Z,95650.5
2018-08-22T11:10:16.281Z,95648.8
2018-08-22T11:11:18.179Z,95648.8
2018-08-22T11:12:20.078Z,95649.2
2018-08-22T11:13:22.280Z,95650.5
2018-08-22T11:14:24.464Z,95652.5
2018-08-22T11:15:26.112Z,95647.2
2018-08-22T11:16:28.554Z,95643.5
2018-08-22T11:17:31.014Z,95642.5
2018-08-22T11:18:32.918Z,95643.2
2018-08-22T11:19:35.085Z,95637.8
2018-08-22T11:20:37.234Z,95642.3
2018-08-22T11:21:39.695Z,95641.5
2018-08-22T11:22:42.147Z,95628.8
2018-08-22T11:23:44.300Z,95633
2018-08-22T11:24:46.741Z,95641
2018-08-22T11:25:48.944Z,95638.5
2018-08-22T11:26:51.406Z,95622
2018-08-22T11:27:53.562Z,95627.8
2018-08-22T11:28:55.493Z,95639
2018-08-22T11:29:57.953Z,95640.4
2018-08-22T11:31:00.421Z,95635.8
2018-08-22T11:32:02.346Z,95637
2018-08-22T11:33:04.521Z,95634.1
2018-08-22T11:34:06.984Z,95634.3
2018-08-22T11:35:09.157Z,95632.9
2018-08-22T11:36:11.336Z,95634.5
2018-08-22T11:37:13.790Z,95629.9
2018-08-22T11:38:16.237Z,95629.8
2018-08-22T11:39:18.408Z,95633.1
2018-08-22T11:40:20.567Z,95632.1
2018-08-22T11:41:22.762Z,95628.2
2018-08-22T11:42:24.929Z,95633.3
2018-08-22T11:43:27.387Z,95629.9
2018-08-22T11:44:29.838Z,95633.2
2018-08-22T11:45:32.283Z,95627.3
2018-08-22T11:46:34.467Z,95628.2
2018-08-22T11:47:36.607Z,95630.6
2018-08-22T11:48:39.050Z,95625.3
2018-08-22T11:49:41.510Z,95628.3
2018-08-22T11:50:43.971Z,95630.6
2018-08-22T11:51:46.442Z,95626.6
2018-08-22T11:52:48.637Z,95627.9
2018-08-22T11:53:50.824Z,95625.5
2018-08-22T11:54:53.298Z,95625.2
2018-08-22T11:55:55.769Z,95629.8
2018-08-22T11:56:57.485Z,95626
2018-08-22T11:57:59.933Z,95625.2
2018-08-22T11:59:02.114Z,95620.3
2018-08-22T12:00:04.570Z,95620.5
2018-08-22T12:01:07.015Z,95623
2018-08-22T12:02:08.952Z,95619.1
2018-08-22T12:03:11.111Z,95619.6
2018-08-22T12:04:13.567Z,95618.7
2018-08-22T12:05:16.015Z,95620.4
2018-08-22T12:06:18.198Z,95623.1
2018-08-22T12:07:20.386Z,95620.9
2018-08-22T12:08:22.289Z,95620.3
2018-08-22T12:09:24.467Z,95622.7
2018-08-22T12:10:26.668Z,95620.9
2018-08-22T12:11:28.870Z,95618.9
2018-08-22T12:12:31.318Z,95617.9
2018-08-22T12:13:33.498Z,95614.8
2018-08-22T12:14:35.394Z,95611.7
2018-08-22T12:15:37.837Z,95613.6
2018-08-22T12:16:40.044Z,95612.3
2018-08-22T12:17:42.230Z,95609.7
2018-08-22T12:18:44.389Z,95611
2018-08-22T12:19:46.583Z,95611.1
2018-08-22T12:20:48.769Z,95612.4
2018-08-22T12:21:51.220Z,95617
2018-08-22T12:22:53.175Z,95612.5
2018-08-22T12:23:55.678Z,95610.6
2018-08-22T12:24:58.123Z,95614.6
2018-08-22T12:25:59.780Z,95611.3
2018-08-22T12:27:01.951Z,95609.4
2018-08-22T12:28:04.137Z,95613.8
2018-08-22T12:29:06.332Z,95608.8
2018-08-22T12:30:08.777Z,95606.8
2018-08-22T12:31:11.461Z,95603.4
2018-08-22T12:32:13.662Z,95606.2
2018-08-22T12:33:16.123Z,95605.2
2018-08-22T12:34:18.571Z,95605.5
2018-08-22T12:35:20.738Z,95599.1
2018-08-22T12:36:22.938Z,95599
2018-08-22T12:37:24.829Z,95604.4
2018-08-22T12:38:27.022Z,95600.8